SDR45HB EDDC-LGIR
Flight info
| Callsign | SDR45HB |
|---|---|
| Flight time | N/A |
| Altitude | 35000 |
| Route | LALUK6E LALUK DCT USUPA DCT LANUX DCT ARSIN DCT BAREB DCT KOSIV DCT REDVA UL616 KOGAT DCT GOSTI DCT TALAS UM749 ELPIS UP20 ROPOX UM749 EPALO |
| Aircraft | A320/M-SDE3FGHIRWY/LB1 |
Departure
| Time | 2026-05-08 19:38 |
|---|---|
| Airport | Dresden Airport (EDDC) |
Arrival
| Time | N/A |
|---|---|
| Airport | Heraklion International Nikos Kazantzakis Airport (LGIR) |
| Time | Latitude | Longitude | Altitude | Speed | Heading |
|---|---|---|---|---|---|
| 2026-05-08 18:54 | 51.12595 | 13.76604 | 752 ft | 0 kts | 221° |
| 2026-05-08 19:28 | 51.12598 | 13.76609 | 750 ft | 2 kts | 221° |
| 2026-05-08 19:28 | 51.12612 | 13.76629 | 753 ft | 3 kts | 225° |
| 2026-05-08 19:28 | 51.12626 | 13.76652 | 749 ft | 3 kts | 231° |
| 2026-05-08 19:28 | 51.12638 | 13.76678 | 750 ft | 3 kts | 242° |
| 2026-05-08 19:29 | 51.12645 | 13.76706 | 751 ft | 3 kts | 269° |
| 2026-05-08 19:29 | 51.12643 | 13.76727 | 751 ft | 1 kts | 309° |
| 2026-05-08 19:29 | 51.12643 | 13.76729 | 750 ft | 0 kts | 311° |
| 2026-05-08 19:34 | 51.12660 | 13.76698 | 751 ft | 8 kts | 311° |
| 2026-05-08 19:34 | 51.12714 | 13.76598 | 751 ft | 16 kts | 311° |
| 2026-05-08 19:34 | 51.12791 | 13.76438 | 749 ft | 18 kts | 277° |
| 2026-05-08 19:35 | 51.12720 | 13.76295 | 751 ft | 17 kts | 221° |
| 2026-05-08 19:35 | 51.12624 | 13.76160 | 754 ft | 19 kts | 221° |
| 2026-05-08 19:35 | 51.12531 | 13.76034 | 757 ft | 16 kts | 222° |
| 2026-05-08 19:35 | 51.12465 | 13.75943 | 763 ft | 10 kts | 221° |
| 2026-05-08 19:36 | 51.12391 | 13.75841 | 764 ft | 15 kts | 224° |
| 2026-05-08 19:36 | 51.12384 | 13.75713 | 765 ft | 11 kts | 291° |
| 2026-05-08 19:36 | 51.12411 | 13.75611 | 765 ft | 10 kts | 297° |
| 2026-05-08 19:36 | 51.12476 | 13.75504 | 769 ft | 13 kts | 352° |
| 2026-05-08 19:37 | 51.12541 | 13.75573 | 767 ft | 8 kts | 37° |
| 2026-05-08 19:37 | 51.12548 | 13.75583 | 767 ft | 0 kts | 40° |
| 2026-05-08 19:37 | 51.12552 | 13.75587 | 766 ft | 1 kts | 40° |
| 2026-05-08 19:37 | 51.12627 | 13.75688 | 765 ft | 45 kts | 40° |
| 2026-05-08 19:38 | 51.13053 | 13.76275 | 748 ft | 113 kts | 41° |
| 2026-05-08 19:38 | 51.13790 | 13.77291 | 778 ft | 159 kts | 41° |
| 2026-05-08 19:38 | 51.14593 | 13.78467 | 1306 ft | 161 kts | 43° |
| 2026-05-08 19:38 | 51.15433 | 13.79658 | 2002 ft | 162 kts | 43° |
| 2026-05-08 19:39 | 51.16282 | 13.80836 | 2630 ft | 164 kts | 41° |
| 2026-05-08 19:39 | 51.17196 | 13.82100 | 2891 ft | 185 kts | 41° |
| 2026-05-08 19:39 | 51.18230 | 13.83519 | 3115 ft | 207 kts | 41° |
| 2026-05-08 19:39 | 51.19384 | 13.85120 | 3365 ft | 232 kts | 45° |
| 2026-05-08 19:40 | 51.20179 | 13.87441 | 3714 ft | 252 kts | 81° |
| 2026-05-08 19:40 | 51.20210 | 13.90273 | 4388 ft | 260 kts | 96° |
| 2026-05-08 19:40 | 51.19692 | 13.93027 | 5152 ft | 265 kts | 123° |
| 2026-05-08 19:40 | 51.18435 | 13.95132 | 5880 ft | 269 kts | 140° |
| 2026-05-08 19:41 | 51.17035 | 13.97141 | 6642 ft | 273 kts | 137° |
| 2026-05-08 19:41 | 51.15524 | 13.98992 | 7327 ft | 277 kts | 155° |
| 2026-05-08 19:41 | 51.13662 | 13.99742 | 8009 ft | 280 kts | 181° |
| 2026-05-08 19:41 | 51.11735 | 13.99291 | 8712 ft | 282 kts | 194° |
| 2026-05-08 19:42 | 51.09811 | 13.98590 | 9444 ft | 286 kts | 194° |
| 2026-05-08 19:42 | 51.07863 | 13.97876 | 10155 ft | 289 kts | 194° |
| 2026-05-08 19:42 | 51.05857 | 13.97141 | 10512 ft | 306 kts | 194° |
| 2026-05-08 19:42 | 51.03707 | 13.96356 | 10657 ft | 329 kts | 194° |
| 2026-05-08 19:43 | 51.01413 | 13.95521 | 10940 ft | 344 kts | 194° |
| 2026-05-08 19:43 | 50.99056 | 13.94670 | 11532 ft | 349 kts | 194° |
| 2026-05-08 19:43 | 50.96669 | 13.93819 | 12187 ft | 352 kts | 194° |
| 2026-05-08 19:43 | 50.94269 | 13.92969 | 12855 ft | 355 kts | 194° |
| 2026-05-08 19:44 | 50.91848 | 13.92111 | 13520 ft | 358 kts | 194° |
| 2026-05-08 19:44 | 50.89413 | 13.91245 | 14145 ft | 360 kts | 195° |
| 2026-05-08 19:44 | 50.86957 | 13.90363 | 14709 ft | 363 kts | 195° |
| 2026-05-08 19:44 | 50.84478 | 13.89525 | 15257 ft | 367 kts | 191° |
| 2026-05-08 19:45 | 50.81909 | 13.89333 | 15796 ft | 374 kts | 178° |
| 2026-05-08 19:45 | 50.79331 | 13.90028 | 16330 ft | 380 kts | 166° |
| 2026-05-08 19:45 | 50.76866 | 13.91626 | 16873 ft | 386 kts | 153° |
| 2026-05-08 19:45 | 50.74571 | 13.93892 | 17406 ft | 391 kts | 149° |
| 2026-05-08 19:46 | 50.72272 | 13.96213 | 17926 ft | 394 kts | 149° |
| 2026-05-08 19:46 | 50.69984 | 13.98508 | 18442 ft | 397 kts | 149° |
| 2026-05-08 19:46 | 50.65279 | 14.03198 | 19361 ft | 403 kts | 150° |
| 2026-05-08 19:47 | 50.62902 | 14.05558 | 19837 ft | 405 kts | 150° |
| 2026-05-08 19:47 | 50.60511 | 14.07931 | 20304 ft | 408 kts | 150° |
| 2026-05-08 19:47 | 50.58100 | 14.10320 | 20782 ft | 410 kts | 150° |
| 2026-05-08 19:47 | 50.55676 | 14.12723 | 21244 ft | 413 kts | 150° |
| 2026-05-08 19:48 | 50.53239 | 14.15138 | 21686 ft | 416 kts | 150° |
| 2026-05-08 19:48 | 50.50783 | 14.17569 | 22124 ft | 418 kts | 150° |
| 2026-05-08 19:48 | 50.48313 | 14.20008 | 22552 ft | 421 kts | 150° |
| 2026-05-08 19:48 | 50.45824 | 14.22461 | 22973 ft | 423 kts | 150° |
| 2026-05-08 19:49 | 50.43325 | 14.24926 | 23401 ft | 425 kts | 150° |
| 2026-05-08 19:49 | 50.40812 | 14.27404 | 23794 ft | 428 kts | 150° |
| 2026-05-08 19:49 | 50.38288 | 14.29896 | 24144 ft | 430 kts | 150° |
| 2026-05-08 19:49 | 50.35756 | 14.32396 | 24468 ft | 431 kts | 150° |
| 2026-05-08 19:50 | 50.33209 | 14.34901 | 24791 ft | 433 kts | 150° |
| 2026-05-08 19:50 | 50.30650 | 14.37406 | 25113 ft | 435 kts | 150° |
| 2026-05-08 19:50 | 50.28077 | 14.39920 | 25430 ft | 436 kts | 150° |
| 2026-05-08 19:50 | 50.25502 | 14.42431 | 25727 ft | 438 kts | 150° |
| 2026-05-08 19:51 | 50.22909 | 14.44956 | 26033 ft | 440 kts | 150° |
| 2026-05-08 19:51 | 50.20305 | 14.47491 | 26353 ft | 441 kts | 150° |
| 2026-05-08 19:51 | 50.17696 | 14.50032 | 26683 ft | 443 kts | 150° |
| 2026-05-08 19:51 | 50.15077 | 14.52581 | 26974 ft | 445 kts | 150° |
| 2026-05-08 19:52 | 50.12451 | 14.55133 | 27262 ft | 446 kts | 150° |
| 2026-05-08 19:52 | 50.09804 | 14.57700 | 27542 ft | 448 kts | 150° |
| 2026-05-08 19:52 | 50.07156 | 14.60270 | 27818 ft | 449 kts | 150° |
| 2026-05-08 19:52 | 50.04499 | 14.62849 | 28083 ft | 451 kts | 150° |
| 2026-05-08 19:53 | 50.01870 | 14.65395 | 28343 ft | 452 kts | 150° |
| 2026-05-08 19:53 | 49.99192 | 14.67979 | 28600 ft | 453 kts | 151° |
| 2026-05-08 19:53 | 49.96505 | 14.70564 | 28843 ft | 455 kts | 151° |
| 2026-05-08 19:53 | 49.93810 | 14.73151 | 29056 ft | 457 kts | 151° |
| 2026-05-08 19:54 | 49.91099 | 14.75752 | 29220 ft | 459 kts | 153° |
| 2026-05-08 19:54 | 49.88375 | 14.78363 | 29419 ft | 461 kts | 153° |
| 2026-05-08 19:54 | 49.85638 | 14.80980 | 29632 ft | 463 kts | 153° |
| 2026-05-08 19:54 | 49.82889 | 14.83607 | 29831 ft | 464 kts | 153° |
| 2026-05-08 19:55 | 49.81067 | 14.85348 | 29965 ft | 465 kts | 153° |
| 2026-05-08 19:55 | 49.78311 | 14.87982 | 30225 ft | 465 kts | 153° |
| 2026-05-08 19:55 | 49.75563 | 14.90609 | 30468 ft | 464 kts | 153° |
| 2026-05-08 19:55 | 49.72812 | 14.93233 | 30712 ft | 464 kts | 153° |
| 2026-05-08 19:56 | 49.70071 | 14.95841 | 30962 ft | 463 kts | 153° |
| 2026-05-08 19:56 | 49.67328 | 14.98445 | 31215 ft | 462 kts | 153° |
| 2026-05-08 19:56 | 49.64595 | 15.01033 | 31442 ft | 461 kts | 155° |
| 2026-05-08 19:56 | 49.61861 | 15.03619 | 31696 ft | 460 kts | 155° |
| 2026-05-08 19:57 | 49.59141 | 15.06191 | 31934 ft | 459 kts | 155° |
| 2026-05-08 19:57 | 49.56421 | 15.08760 | 32180 ft | 458 kts | 155° |